Time;durP1;ratioP1;P1;durP2;ratioP2;P2;SDS_P1;SDS_P2;PMS_P1;PMS_P2;Temp;Humidity;BMP_temperature;BMP_pressure;BME280_temperature;BME280_humidity;BME280_pressure;Samples;Min_cycle;Max_cycle;Signal;HPM_P1;HPM_P2
2022/05/08 00:00:54;;;;;;;8.75;6.10;;;14.80;74.20;;;;;;5061935;28;20168;-85
2022/05/08 00:03:22;;;;;;;11.10;6.43;;;14.80;74.30;;;;;;5077056;28;20184;-86
2022/05/08 00:05:48;;;;;;;11.57;7.03;;;14.90;73.80;;;;;;5078624;28;20164;-85
2022/05/08 00:08:14;;;;;;;9.43;6.43;;;14.80;73.80;;;;;;5078714;28;20315;-86
2022/05/08 00:10:42;;;;;;;9.23;6.03;;;14.80;73.70;;;;;;5078314;28;20177;-86
2022/05/08 00:13:09;;;;;;;8.98;6.35;;;14.80;73.70;;;;;;5079619;28;20410;-86
2022/05/08 00:15:35;;;;;;;9.70;6.78;;;14.70;74.10;;;;;;5079964;28;20260;-86
2022/05/08 00:18:02;;;;;;;10.80;5.65;;;14.70;74.10;;;;;;5099525;28;20207;-87
2022/05/08 00:20:27;;;;;;;8.20;6.07;;;14.70;73.80;;;;;;5099147;28;20607;-86
2022/05/08 00:22:54;;;;;;;7.38;6.35;;;14.70;73.90;;;;;;5116485;28;20702;-85
2022/05/08 00:25:53;;;;;;;11.50;6.83;;;14.60;74.30;;;;;;5098659;28;20202;-85
2022/05/08 00:28:19;;;;;;;8.77;5.20;;;14.50;74.60;;;;;;5093968;28;20210;-86
2022/05/08 00:30:45;;;;;;;7.00;6.30;;;14.60;74.50;;;;;;5098044;28;20180;-86
2022/05/08 00:33:10;;;;;;;10.70;5.93;;;14.50;74.70;;;;;;5079589;28;20190;-85
2022/05/08 00:35:36;;;;;;;10.50;7.30;;;14.40;74.80;;;;;;5087711;28;20194;-85
2022/05/08 00:38:02;;;;;;;6.73;5.53;;;14.40;75.00;;;;;;5082132;28;20230;-85
2022/05/08 00:40:30;;;;;;;9.37;7.10;;;14.30;75.50;;;;;;5085827;28;20480;-86
2022/05/08 00:42:56;;;;;;;11.05;7.82;;;14.40;75.20;;;;;;5064526;28;20443;-85
2022/05/08 00:45:22;;;;;;;12.00;6.47;;;14.40;75.20;;;;;;5080542;28;20171;-85
2022/05/08 00:47:47;;;;;;;10.47;6.80;;;14.40;75.10;;;;;;5080462;28;20199;-85
2022/05/08 00:50:14;;;;;;;8.47;7.57;;;14.30;75.40;;;;;;5085010;28;20177;-85
2022/05/08 00:52:39;;;;;;;8.93;6.10;;;14.30;75.60;;;;;;5061208;28;20531;-85
2022/05/08 00:55:06;;;;;;;11.57;7.33;;;14.30;76.00;;;;;;5060689;28;20210;-85
2022/05/08 00:57:33;;;;;;;9.75;7.07;;;14.30;76.20;;;;;;5063013;28;20215;-85
2022/05/08 01:00:03;;;;;;;14.15;7.38;;;14.30;75.40;;;;;;5081714;28;20182;-85
2022/05/08 01:02:29;;;;;;;10.00;6.57;;;14.30;75.60;;;;;;5100269;28;20161;-86
2022/05/08 01:04:55;;;;;;;10.50;7.30;;;14.30;75.40;;;;;;5082264;28;20176;-85
2022/05/08 01:07:21;;;;;;;12.17;8.00;;;14.30;75.20;;;;;;5100982;28;20256;-85
2022/05/08 01:09:47;;;;;;;11.40;6.63;;;14.40;74.90;;;;;;5085213;28;20179;-85
2022/05/08 01:12:13;;;;;;;10.33;7.63;;;14.30;75.00;;;;;;5084482;28;20179;-85
2022/05/08 01:14:39;;;;;;;16.70;8.60;;;14.30;75.50;;;;;;5085148;28;20448;-85
2022/05/08 01:17:04;;;;;;;9.83;7.87;;;14.30;75.00;;;;;;5079466;28;20206;-86
2022/05/08 01:19:30;;;;;;;11.37;7.20;;;14.30;75.00;;;;;;5077209;28;20199;-86
2022/05/08 01:21:56;;;;;;;11.00;8.53;;;14.20;74.90;;;;;;5096289;28;20414;-86
2022/05/08 01:24:22;;;;;;;13.50;8.00;;;14.30;75.00;;;;;;5095935;28;20175;-85
2022/05/08 01:26:49;;;;;;;9.07;7.20;;;14.30;74.50;;;;;;5078038;28;20643;-86
2022/05/08 01:29:16;;;;;;;11.98;7.53;;;14.20;74.90;;;;;;5096106;28;20814;-86
2022/05/08 01:31:42;;;;;;;13.10;7.00;;;14.20;74.70;;;;;;5061204;28;20179;-86
2022/05/08 01:34:08;;;;;;;10.07;8.53;;;14.20;74.40;;;;;;5077689;28;20180;-86
2022/05/08 01:36:34;;;;;;;10.40;7.60;;;14.20;74.30;;;;;;5077202;28;20180;-86
2022/05/08 01:38:59;;;;;;;16.60;8.80;;;14.20;74.40;;;;;;5095525;28;20282;-86
2022/05/08 01:41:25;;;;;;;9.30;7.90;;;14.20;74.00;;;;;;5076919;28;20172;-82
2022/05/08 01:43:51;;;;;;;10.53;7.80;;;14.20;74.60;;;;;;5077066;28;20179;-83
2022/05/08 01:46:17;;;;;;;12.03;8.23;;;14.10;73.80;;;;;;5079909;28;20179;-86
2022/05/08 01:48:42;;;;;;;14.20;7.67;;;14.10;73.70;;;;;;5082434;28;20717;-84
2022/05/08 01:51:12;;;;;;;10.30;7.87;;;14.10;73.50;;;;;;5078395;28;20505;-84
2022/05/08 01:53:39;;;;;;;11.80;8.02;;;14.10;73.30;;;;;;5078032;28;20263;-84
2022/05/08 01:56:07;;;;;;;16.80;7.78;;;14.00;73.70;;;;;;5099760;28;20203;-84
2022/05/08 01:58:33;;;;;;;13.60;8.18;;;14.00;73.80;;;;;;5085480;28;20276;-85
2022/05/08 02:01:01;;;;;;;12.30;8.20;;;14.00;73.30;;;;;;5105415;28;20180;-84
2022/05/08 02:03:27;;;;;;;13.20;8.45;;;14.00;73.10;;;;;;5088546;28;20413;-85
2022/05/08 02:05:53;;;;;;;16.33;8.13;;;13.90;73.00;;;;;;5086944;28;20187;-84
2022/05/08 02:08:19;;;;;;;13.13;8.43;;;13.80;72.70;;;;;;5082179;28;20238;-84
2022/05/08 02:10:45;;;;;;;9.68;7.40;;;13.80;73.10;;;;;;5082950;28;20417;-84
2022/05/08 02:13:11;;;;;;;12.17;7.60;;;13.70;73.20;;;;;;5100707;28;20195;-83
2022/05/08 02:15:37;;;;;;;11.07;8.40;;;13.70;73.10;;;;;;5099396;28;20437;-84
2022/05/08 02:18:08;;;;;;;10.67;8.03;;;13.70;73.00;;;;;;5097032;28;20223;-84
2022/05/08 02:20:53;;;;;;;12.23;8.30;;;13.80;72.80;;;;;;5098693;28;20408;-84
2022/05/08 02:23:19;;;;;;;9.48;7.47;;;13.70;72.90;;;;;;5100752;28;20194;-84
2022/05/08 02:25:44;;;;;;;10.73;8.10;;;13.70;73.10;;;;;;5082842;28;20172;-85
2022/05/08 02:28:10;;;;;;;14.37;8.47;;;13.60;73.00;;;;;;5082746;28;20195;-84
2022/05/08 02:30:36;;;;;;;16.73;9.27;;;13.60;73.20;;;;;;5101881;28;20203;-86
2022/05/08 02:33:03;;;;;;;12.93;9.27;;;13.60;73.40;;;;;;5101357;28;20570;-85
2022/05/08 02:35:29;;;;;;;8.85;7.95;;;13.60;73.40;;;;;;5084366;28;20734;-85
2022/05/08 02:37:56;;;;;;;11.37;7.90;;;13.60;73.30;;;;;;5101265;28;20227;-84
2022/05/08 02:40:23;;;;;;;13.18;7.93;;;13.60;73.40;;;;;;5101732;28;20401;-84
2022/05/08 02:42:49;;;;;;;13.75;8.20;;;13.60;73.40;;;;;;5082737;28;20180;-84
2022/05/08 02:45:15;;;;;;;10.43;8.67;;;13.60;73.60;;;;;;5103612;28;20172;-84
2022/05/08 02:47:41;;;;;;;12.67;9.10;;;13.70;73.30;;;;;;5082389;28;20469;-85
2022/05/08 02:50:09;;;;;;;11.57;8.50;;;13.70;73.10;;;;;;5068513;28;20418;-85
2022/05/08 02:52:36;;;;;;;10.18;9.10;;;13.70;72.90;;;;;;5061641;28;20199;-84
2022/05/08 02:58:32;;;;;;;10.40;8.35;;;13.60;72.90;;;;;;5080428;28;20180;-84
2022/05/08 03:00:38;;;;;;;11.40;8.88;;;13.50;73.50;;;;;;5080577;28;20180;-84
2022/05/08 03:03:05;;;;;;;16.85;9.45;;;13.50;73.70;;;;;;5061466;28;20181;-85
2022/05/08 03:05:31;;;;;;;15.40;8.52;;;13.40;74.10;;;;;;5061297;28;20203;-84
2022/05/08 03:07:57;;;;;;;13.80;8.95;;;13.50;74.20;;;;;;5062330;28;20598;-85
2022/05/08 03:10:23;;;;;;;13.93;8.03;;;13.40;73.80;;;;;;5080335;28;20191;-84
2022/05/08 03:12:48;;;;;;;10.50;9.10;;;13.50;73.90;;;;;;5079488;28;20189;-85
2022/05/08 03:15:14;;;;;;;14.50;9.67;;;13.50;73.80;;;;;;5077409;28;20564;-85
2022/05/08 03:17:40;;;;;;;14.10;9.30;;;13.40;74.20;;;;;;5060543;28;20234;-85
2022/05/08 03:20:06;;;;;;;13.00;9.80;;;13.40;74.00;;;;;;5059888;28;20173;-84
2022/05/08 03:22:32;;;;;;;11.57;8.93;;;13.50;73.80;;;;;;5068733;28;20172;-84
2022/05/08 03:25:16;;;;;;;13.23;10.53;;;13.40;74.20;;;;;;5081120;28;20176;-84
2022/05/08 03:27:42;;;;;;;15.05;10.07;;;13.40;74.00;;;;;;5080694;28;20234;-82
2022/05/08 03:30:09;;;;;;;12.10;9.70;;;13.40;73.90;;;;;;5098104;28;20167;-85
2022/05/08 03:32:34;;;;;;;15.73;10.55;;;13.50;74.10;;;;;;5078908;28;20172;-84
2022/05/08 03:35:00;;;;;;;21.33;10.80;;;13.40;74.20;;;;;;5079780;28;20551;-84
2022/05/08 03:37:26;;;;;;;11.90;9.57;;;13.40;74.50;;;;;;5084685;28;20200;-85
2022/05/08 03:39:52;;;;;;;11.90;8.90;;;13.30;74.30;;;;;;5105051;28;20957;-84
2022/05/08 03:42:18;;;;;;;13.90;10.93;;;13.40;74.40;;;;;;5103008;28;20267;-84
2022/05/08 03:44:43;;;;;;;15.57;10.07;;;13.40;74.30;;;;;;5085157;28;20517;-84
2022/05/08 03:47:09;;;;;;;14.37;10.20;;;13.30;74.50;;;;;;5103546;28;20180;-84
2022/05/08 03:49:35;;;;;;;14.13;10.00;;;13.40;74.50;;;;;;5082979;28;20448;-85
2022/05/08 03:52:01;;;;;;;19.90;10.27;;;13.40;74.40;;;;;;5066469;28;20191;-84
2022/05/08 03:54:27;;;;;;;10.93;9.83;;;13.30;75.40;;;;;;5087837;28;20238;-84
2022/05/08 03:56:52;;;;;;;14.37;11.07;;;13.30;74.40;;;;;;5113441;28;20445;-84
2022/05/08 03:59:18;;;;;;;13.57;10.03;;;13.40;74.20;;;;;;5095089;28;20434;-84
2022/05/08 04:01:44;;;;;;;17.33;10.43;;;13.30;74.70;;;;;;5093046;28;20172;-86
2022/05/08 04:04:09;;;;;;;16.30;10.17;;;13.30;75.10;;;;;;5095671;28;20203;-86
2022/05/08 04:06:35;;;;;;;13.63;10.30;;;13.30;75.10;;;;;;5097532;28;20180;-85
2022/05/08 04:09:01;;;;;;;17.63;11.17;;;13.30;75.10;;;;;;5096987;28;20258;-85
2022/05/08 04:11:29;;;;;;;17.50;11.63;;;13.40;74.60;;;;;;5097184;28;20184;-84
2022/05/08 04:13:55;;;;;;;11.95;9.70;;;13.40;74.60;;;;;;5096446;28;20179;-85
2022/05/08 04:16:21;;;;;;;13.90;11.00;;;13.30;74.90;;;;;;5096700;28;20184;-84
2022/05/08 04:18:48;;;;;;;14.13;10.60;;;13.20;74.90;;;;;;5090884;28;20488;-83
2022/05/08 04:21:14;;;;;;;18.02;10.85;;;13.30;75.00;;;;;;5080950;28;20425;-84
2022/05/08 04:26:24;;;;;;;14.93;10.90;;;13.20;74.50;;;;;;5098788;28;20172;-83
2022/05/08 04:28:50;;;;;;;21.27;10.90;;;13.20;75.00;;;;;;5080571;28;20199;-83
2022/05/08 04:31:16;;;;;;;16.43;10.83;;;13.10;74.60;;;;;;5080261;28;20309;-83
2022/05/08 04:33:41;;;;;;;13.90;10.20;;;13.00;74.60;;;;;;5080631;28;20183;-83
2022/05/08 04:36:07;;;;;;;16.30;11.33;;;13.00;74.70;;;;;;5066424;28;20275;-84
2022/05/08 04:38:33;;;;;;;14.10;11.93;;;13.00;74.70;;;;;;5080150;28;20208;-83
2022/05/08 04:40:59;;;;;;;15.27;10.50;;;13.00;75.70;;;;;;5099101;28;20636;-84
2022/05/08 04:43:24;;;;;;;17.70;11.50;;;13.00;75.10;;;;;;5079442;28;20472;-85
2022/05/08 04:45:50;;;;;;;14.90;10.43;;;13.00;74.80;;;;;;5080299;28;20262;-83
2022/05/08 04:48:16;;;;;;;15.80;9.80;;;13.00;75.00;;;;;;5078500;28;20207;-83
2022/05/08 04:50:42;;;;;;;14.13;9.52;;;13.00;74.90;;;;;;5059575;28;20259;-84
2022/05/08 04:53:07;;;;;;;19.13;10.70;;;13.00;74.80;;;;;;5058612;28;20239;-84
2022/05/08 04:55:33;;;;;;;14.57;9.87;;;13.00;74.50;;;;;;5076441;28;20414;-84
2022/05/08 04:57:59;;;;;;;16.90;12.13;;;13.10;74.50;;;;;;5058437;28;20204;-85
2022/05/08 05:00:26;;;;;;;15.40;10.20;;;13.10;74.60;;;;;;5058514;28;20194;-84
2022/05/08 05:02:51;;;;;;;14.38;10.93;;;13.10;74.10;;;;;;5057759;28;20183;-85
2022/05/08 05:05:17;;;;;;;15.70;9.70;;;13.10;73.60;;;;;;5063378;28;20184;-85
2022/05/08 05:07:43;;;;;;;16.57;10.77;;;13.10;73.40;;;;;;5103500;28;20211;-83
2022/05/08 05:10:12;;;;;;;12.40;9.77;;;13.10;73.00;;;;;;5104433;28;20249;-84
2022/05/08 05:12:39;;;;;;;15.27;10.82;;;13.10;72.80;;;;;;5105335;28;20182;-83
2022/05/08 05:15:06;;;;;;;20.30;11.23;;;13.10;72.60;;;;;;5105499;28;20183;-83
2022/05/08 05:17:32;;;;;;;16.50;10.57;;;13.20;72.30;;;;;;5105388;28;20285;-83
2022/05/08 05:19:58;;;;;;;16.13;9.73;;;13.20;71.90;;;;;;5106059;28;20199;-84
2022/05/08 05:22:24;;;;;;;21.23;9.07;;;13.20;71.40;;;;;;5107317;28;20224;-84
2022/05/08 05:24:50;;;;;;;14.37;9.90;;;13.30;71.50;;;;;;5122593;28;20175;-84
2022/05/08 05:27:16;;;;;;;13.90;9.63;;;13.30;71.20;;;;;;5122722;28;20778;-86
2022/05/08 05:29:42;;;;;;;15.50;8.53;;;13.30;71.00;;;;;;5103955;28;20421;-84
2022/05/08 05:32:08;;;;;;;14.60;9.33;;;13.30;70.30;;;;;;5103811;28;20183;-84
2022/05/08 05:34:34;;;;;;;17.50;8.87;;;13.40;69.80;;;;;;5079473;28;20451;-84
2022/05/08 05:36:59;;;;;;;15.53;8.33;;;13.40;69.30;;;;;;5078531;28;20506;-84
2022/05/08 05:39:25;;;;;;;15.30;8.60;;;13.40;68.80;;;;;;5078967;28;20426;-85
2022/05/08 05:41:59;;;;;;;15.02;8.52;;;13.50;68.30;;;;;;5078347;28;20418;-85
2022/05/08 05:44:26;;;;;;;18.90;9.23;;;13.50;67.50;;;;;;5096365;28;20172;-84
2022/05/08 05:49:38;;;;;;;14.95;8.88;;;13.50;67.40;;;;;;5095831;28;20217;-85
2022/05/08 05:52:06;;;;;;;12.00;8.63;;;13.60;66.70;;;;;;5077211;28;20176;-85
2022/05/08 05:54:32;;;;;;;10.57;8.02;;;13.60;67.10;;;;;;5060047;28;20426;-85
2022/05/08 05:56:58;;;;;;;24.10;9.60;;;13.70;67.20;;;;;;5076487;28;20269;-85
2022/05/08 05:59:23;;;;;;;17.60;7.53;;;13.80;66.20;;;;;;5076870;28;20527;-85
2022/05/08 06:01:49;;;;;;;19.97;8.43;;;13.80;65.30;;;;;;5097608;28;20198;-85
2022/05/08 06:04:15;;;;;;;10.47;7.37;;;13.90;65.20;;;;;;5077938;28;20209;-85
2022/05/08 06:06:40;;;;;;;12.37;7.87;;;13.90;64.90;;;;;;5076698;28;20573;-85
2022/05/08 06:09:07;;;;;;;17.60;7.87;;;13.90;64.40;;;;;;5076366;28;20218;-85
2022/05/08 06:11:33;;;;;;;13.20;7.75;;;13.90;63.90;;;;;;5080273;28;20172;-84
2022/05/08 06:14:21;;;;;;;16.53;7.83;;;13.90;63.70;;;;;;5077145;28;20560;-84
2022/05/08 06:16:47;;;;;;;15.70;6.95;;;14.00;63.30;;;;;;5099941;28;20206;-84
2022/05/08 06:19:12;;;;;;;15.23;7.40;;;13.90;63.00;;;;;;5095281;28;20551;-84
2022/05/08 06:21:38;;;;;;;13.43;7.10;;;13.90;63.40;;;;;;5078581;28;20437;-86
2022/05/08 06:24:04;;;;;;;12.80;6.80;;;13.90;62.80;;;;;;5080567;28;20179;-85
2022/05/08 06:26:30;;;;;;;16.83;8.32;;;13.90;62.70;;;;;;5095488;28;20564;-84
2022/05/08 06:28:56;;;;;;;13.27;7.10;;;14.00;62.60;;;;;;5077619;28;20804;-84
2022/05/08 06:31:22;;;;;;;17.98;7.18;;;14.10;63.50;;;;;;5085658;28;20182;-84
2022/05/08 06:33:49;;;;;;;15.23;7.00;;;14.30;62.60;;;;;;5119383;28;20224;-84
2022/05/08 06:36:14;;;;;;;15.02;6.85;;;14.50;61.70;;;;;;5105849;28;20239;-85
2022/05/08 06:38:40;;;;;;;12.53;7.40;;;14.50;61.80;;;;;;5103527;28;20260;-85
2022/05/08 06:41:06;;;;;;;16.83;7.53;;;14.60;60.80;;;;;;5109261;28;20175;-86
2022/05/08 06:43:35;;;;;;;15.90;8.33;;;14.70;60.60;;;;;;5094567;28;20448;-84
2022/05/08 06:46:00;;;;;;;13.70;7.15;;;14.60;60.20;;;;;;5092985;28;20176;-84
2022/05/08 06:48:27;;;;;;;14.30;7.07;;;14.60;60.40;;;;;;5087478;28;20264;-84
2022/05/08 06:50:53;;;;;;;14.93;6.22;;;14.50;60.60;;;;;;5079788;28;20251;-84
2022/05/08 06:53:19;;;;;;;14.57;7.13;;;14.40;61.00;;;;;;5099322;28;20185;-85
2022/05/08 06:55:45;;;;;;;17.30;6.87;;;14.40;60.50;;;;;;5098876;28;20265;-85
2022/05/08 06:58:12;;;;;;;17.40;7.55;;;14.40;59.90;;;;;;5101547;28;20210;-86
2022/05/08 07:03:22;;;;;;;19.30;6.40;;;14.40;60.00;;;;;;5125990;28;20641;-84
2022/05/08 07:05:49;;;;;;;19.30;6.90;;;14.40;59.90;;;;;;5103170;28;20274;-84
2022/05/08 07:08:15;;;;;;;22.00;6.70;;;14.50;59.30;;;;;;5119813;28;20697;-84
2022/05/08 07:10:42;;;;;;;20.20;6.32;;;14.50;59.30;;;;;;5122150;28;20190;-83
2022/05/08 07:13:26;;;;;;;12.38;5.65;;;14.50;59.30;;;;;;5120423;28;20190;-84
2022/05/08 07:15:54;;;;;;;13.77;5.55;;;14.70;58.70;;;;;;5102325;28;20182;-85
2022/05/08 07:18:21;;;;;;;15.00;5.70;;;14.80;58.40;;;;;;5085322;28;20294;-83
2022/05/08 07:20:47;;;;;;;14.23;5.55;;;14.80;58.00;;;;;;5103603;28;20386;-84
2022/05/08 07:23:13;;;;;;;22.00;6.60;;;14.90;57.80;;;;;;5121517;28;20545;-84
2022/05/08 07:25:39;;;;;;;17.77;5.70;;;14.80;57.80;;;;;;5085462;28;20216;-85
2022/05/08 07:28:05;;;;;;;16.58;6.45;;;15.00;57.90;;;;;;5102290;28;20194;-84
2022/05/08 07:30:31;;;;;;;15.27;5.30;;;15.10;57.40;;;;;;5101521;28;20194;-84
2022/05/08 07:33:00;;;;;;;16.13;5.60;;;15.20;57.10;;;;;;5119415;28;20258;-84
2022/05/08 07:38:10;;;;;;;15.48;5.65;;;15.30;56.30;;;;;;5118797;28;20221;-84
2022/05/08 07:40:51;;;;;;;20.03;5.90;;;15.40;56.20;;;;;;5099735;28;20258;-84
2022/05/08 07:43:17;;;;;;;18.77;5.78;;;15.40;56.00;;;;;;5099663;28;20163;-85
2022/05/08 07:45:43;;;;;;;13.87;4.93;;;15.50;55.90;;;;;;5098084;28;20190;-84
2022/05/08 07:48:09;;;;;;;12.00;4.93;;;15.50;54.80;;;;;;5099397;28;20807;-84
2022/05/08 07:50:35;;;;;;;12.52;4.88;;;15.60;54.20;;;;;;5086057;28;20187;-85
2022/05/08 07:53:01;;;;;;;16.30;4.80;;;15.60;53.90;;;;;;5079450;28;20727;-85
2022/05/08 07:55:28;;;;;;;14.10;5.17;;;15.50;54.40;;;;;;5067476;28;20195;-84
2022/05/08 07:57:53;;;;;;;12.77;4.63;;;15.50;53.80;;;;;;5086866;28;20462;-84
2022/05/08 08:00:19;;;;;;;12.30;4.90;;;15.40;53.90;;;;;;5098462;28;20189;-86
2022/05/08 08:02:45;;;;;;;15.60;5.30;;;15.40;54.50;;;;;;5078809;28;20770;-84
2022/05/08 08:05:11;;;;;;;11.50;4.77;;;15.50;54.10;;;;;;5078310;28;20797;-84
2022/05/08 08:07:37;;;;;;;15.47;5.60;;;15.50;54.00;;;;;;5078000;28;20460;-84
2022/05/08 08:10:04;;;;;;;18.93;6.37;;;15.40;55.00;;;;;;5097989;28;20187;-85
2022/05/08 08:12:31;;;;;;;15.50;5.70;;;15.20;55.10;;;;;;5077701;28;20486;-84
2022/05/08 08:14:59;;;;;;;19.85;5.55;;;15.00;56.30;;;;;;5092885;28;20180;-84
2022/05/08 08:17:26;;;;;;;16.55;5.82;;;14.90;56.90;;;;;;5078215;28;20192;-86
2022/05/08 08:19:52;;;;;;;16.45;4.95;;;15.10;56.10;;;;;;5090606;28;20577;-84
2022/05/08 08:22:18;;;;;;;12.30;5.40;;;15.10;55.80;;;;;;5078190;28;20172;-85
2022/05/08 08:24:44;;;;;;;12.87;4.93;;;15.10;55.40;;;;;;5076578;28;20511;-84
2022/05/08 08:27:10;;;;;;;17.95;6.30;;;15.10;54.60;;;;;;5084105;28;20179;-83
2022/05/08 08:29:35;;;;;;;18.63;5.50;;;15.10;54.80;;;;;;5107753;28;20213;-84
2022/05/08 08:32:01;;;;;;;18.00;6.30;;;15.10;54.70;;;;;;5084564;28;20937;-84
2022/05/08 08:34:27;;;;;;;17.13;5.35;;;15.20;54.20;;;;;;5073898;28;20256;-83
2022/05/08 08:36:53;;;;;;;19.00;5.60;;;15.20;53.30;;;;;;5066317;28;20228;-84
2022/05/08 08:39:19;;;;;;;12.87;4.83;;;15.20;53.40;;;;;;5089336;28;20377;-84
2022/05/08 08:41:53;;;;;;;10.57;4.83;;;15.20;52.90;;;;;;5079590;28;20325;-84
2022/05/08 08:50:02;;;;;;;10.88;5.05;;;15.50;51.30;;;;;;5097579;28;20228;-84
2022/05/08 08:52:28;;;;;;;17.75;5.20;;;15.40;51.50;;;;;;5079469;28;20240;-83
2022/05/08 08:54:54;;;;;;;11.50;5.03;;;15.40;51.70;;;;;;5079468;28;20210;-83
2022/05/08 08:57:20;;;;;;;8.55;4.72;;;15.50;52.40;;;;;;5074497;28;20474;-84
2022/05/08 08:59:46;;;;;;;10.27;4.67;;;15.60;52.60;;;;;;5066211;28;21072;-84
2022/05/08 09:02:16;;;;;;;17.70;6.10;;;15.70;52.20;;;;;;5097206;28;20560;-85
2022/05/08 09:04:48;;;;;;;7.97;4.18;;;15.70;50.80;;;;;;5080338;28;20426;-84
2022/05/08 09:07:42;;;;;;;17.92;4.68;;;15.70;50.30;;;;;;5113935;28;20175;-85
2022/05/08 09:10:10;;;;;;;11.07;4.80;;;15.80;49.70;;;;;;5064645;28;20192;-85
2022/05/08 09:12:38;;;;;;;13.95;4.45;;;15.80;48.50;;;;;;5067240;28;20298;-87
2022/05/08 09:15:24;;;;;;;11.43;5.07;;;16.00;47.50;;;;;;5076885;28;20172;-87
2022/05/08 09:17:53;;;;;;;16.65;5.03;;;16.10;48.00;;;;;;5083137;28;20211;-87
2022/05/08 09:20:36;;;;;;;15.10;5.03;;;16.20;47.60;;;;;;5080384;28;20176;-86
2022/05/08 09:23:17;;;;;;;11.68;4.47;;;16.30;47.30;;;;;;5103524;28;20175;-86
2022/05/08 09:26:02;;;;;;;9.88;4.28;;;16.10;50.30;;;;;;5093805;28;20176;-85
2022/05/08 09:28:43;;;;;;;13.75;3.83;;;16.10;46.10;;;;;;5113567;28;20201;-85
2022/05/08 09:31:14;;;;;;;12.80;4.40;;;16.20;45.40;;;;;;5091820;28;20198;-85
2022/05/08 09:33:40;;;;;;;11.43;3.20;;;16.30;43.60;;;;;;5076406;28;20184;-85
2022/05/08 09:36:21;;;;;;;8.30;3.33;;;16.40;43.90;;;;;;5083684;28;20183;-86
2022/05/08 09:38:53;;;;;;;6.40;3.05;;;16.40;43.80;;;;;;5068789;28;20266;-86
2022/05/08 09:41:29;;;;;;;7.78;3.60;;;16.50;44.10;;;;;;5065063;28;20183;-86
2022/05/08 09:44:07;;;;;;;14.32;4.57;;;16.60;45.10;;;;;;5075427;28;20168;-87
2022/05/08 09:46:44;;;;;;;10.02;4.32;;;16.60;45.70;;;;;;5092318;28;20187;-85
2022/05/08 09:49:21;;;;;;;10.70;3.72;;;16.60;46.10;;;;;;5102369;28;20218;-86
2022/05/08 09:51:49;;;;;;;9.18;4.45;;;16.60;47.60;;;;;;5094835;28;20222;-86
2022/05/08 09:54:18;;;;;;;11.23;4.43;;;16.70;46.90;;;;;;5080115;28;20168;-87
2022/05/08 09:56:49;;;;;;;11.02;4.30;;;16.60;47.80;;;;;;5093434;28;20178;-87
2022/05/08 09:59:15;;;;;;;17.88;4.47;;;16.70;47.10;;;;;;5103077;28;20219;-86
2022/05/08 10:01:45;;;;;;;10.02;4.40;;;16.80;46.00;;;;;;5087763;28;20175;-85
2022/05/08 10:04:11;;;;;;;8.73;4.45;;;16.80;47.60;;;;;;5096841;28;20168;-85
2022/05/08 10:06:39;;;;;;;9.35;3.65;;;16.70;47.90;;;;;;5078787;28;20179;-85
2022/05/08 10:14:35;;;;;;;9.88;3.25;;;17.10;44.90;;;;;;5093150;28;20197;-86
2022/05/08 10:17:04;;;;;;;8.90;3.30;;;17.20;44.40;;;;;;5102327;28;20200;-86
2022/05/08 10:19:30;;;;;;;5.00;2.40;;;17.40;42.80;;;;;;5077829;28;20445;-86
2022/05/08 10:21:56;;;;;;;7.67;2.57;;;17.40;42.70;;;;;;5076323;28;20171;-86
2022/05/08 10:24:40;;;;;;;7.50;3.20;;;17.40;41.60;;;;;;5088893;28;20187;-85
2022/05/08 10:27:15;;;;;;;5.93;2.95;;;17.40;42.10;;;;;;5076327;28;20486;-85
2022/05/08 10:29:42;;;;;;;7.03;2.50;;;17.50;42.30;;;;;;5067359;28;20231;-86
2022/05/08 10:32:10;;;;;;;6.70;2.85;;;17.60;41.30;;;;;;5062944;28;20179;-85
2022/05/08 10:34:40;;;;;;;8.80;2.55;;;17.60;41.10;;;;;;5099624;28;20267;-85
2022/05/08 10:37:11;;;;;;;9.48;3.80;;;17.70;40.50;;;;;;5079964;28;20191;-84
2022/05/08 10:39:41;;;;;;;6.72;3.35;;;17.80;40.50;;;;;;5072884;28;20200;-84
2022/05/08 10:42:29;;;;;;;11.82;3.70;;;17.90;39.70;;;;;;5091368;28;20170;-84
2022/05/08 10:44:57;;;;;;;8.95;3.88;;;17.80;40.40;;;;;;5101344;28;20164;-85
2022/05/08 10:47:40;;;;;;;8.07;3.22;;;17.80;39.80;;;;;;5083268;28;20237;-84
2022/05/08 10:50:08;;;;;;;9.45;3.58;;;17.80;39.50;;;;;;5086126;28;20184;-85
2022/05/08 10:52:46;;;;;;;7.18;2.10;;;17.80;39.60;;;;;;5087764;28;20651;-85
2022/05/08 10:55:15;;;;;;;10.32;3.05;;;17.90;38.60;;;;;;5073664;28;20704;-85
2022/05/08 10:57:43;;;;;;;5.88;2.58;;;18.00;38.80;;;;;;5083116;28;20219;-85
2022/05/08 11:00:11;;;;;;;6.10;2.70;;;18.10;38.10;;;;;;5083138;28;20673;-85
2022/05/08 11:02:47;;;;;;;9.27;2.90;;;18.10;39.00;;;;;;5091025;28;20184;-85
2022/05/08 11:05:20;;;;;;;10.23;4.53;;;18.10;38.10;;;;;;5097130;28;20172;-84
2022/05/08 11:07:55;;;;;;;5.03;3.20;;;18.10;38.10;;;;;;5080019;28;20229;-85
2022/05/08 11:11:11;;;;;;;7.97;3.17;;;18.10;37.80;;;;;;5079390;28;20308;-85
2022/05/08 11:13:46;;;;;;;8.32;3.00;;;18.10;38.90;;;;;;5060816;28;20219;-85
2022/05/08 11:16:41;;;;;;;7.22;2.80;;;18.10;38.30;;;;;;5089352;28;20555;-85
2022/05/08 11:19:07;;;;;;;6.63;3.28;;;18.30;37.30;;;;;;5070962;28;20302;-85
2022/05/08 11:21:34;;;;;;;3.73;2.30;;;18.40;36.80;;;;;;5072198;28;20818;-85
2022/05/08 11:24:23;;;;;;;2.70;2.00;;;18.60;35.80;;;;;;5078207;28;20430;-85
2022/05/08 11:26:49;;;;;;;7.22;2.33;;;18.50;36.40;;;;;;5099471;28;20187;-85
2022/05/08 11:29:15;;;;;;;4.07;1.87;;;18.50;36.10;;;;;;5080563;28;20701;-85
2022/05/08 11:36:04;;;;;;;3.35;2.33;;;18.40;35.20;;;;;;5084573;28;20215;-85
2022/05/08 11:37:20;;;;;;;7.70;2.00;;;18.30;35.90;;;;;;5100507;28;20218;-85
2022/05/08 11:39:46;;;;;;;6.57;3.55;;;18.30;35.80;;;;;;5070703;28;20267;-85
2022/05/08 11:42:12;;;;;;;8.30;2.17;;;18.30;35.50;;;;;;5081354;28;20631;-86
2022/05/08 11:44:37;;;;;;;5.30;2.50;;;18.30;35.90;;;;;;5072129;28;20240;-85
2022/05/08 11:47:10;;;;;;;7.53;2.93;;;18.40;36.20;;;;;;5057294;28;20196;-85
2022/05/08 11:49:40;;;;;;;8.02;2.83;;;18.50;36.80;;;;;;5097838;28;20214;-83
2022/05/08 11:52:22;;;;;;;8.02;3.20;;;18.60;36.80;;;;;;5067536;28;20191;-85
2022/05/08 11:54:59;;;;;;;8.27;2.55;;;18.70;36.90;;;;;;5060259;28;20274;-86
2022/05/08 11:57:25;;;;;;;6.43;2.55;;;18.70;36.60;;;;;;5079269;28;20200;-87
2022/05/08 12:00:04;;;;;;;5.90;2.47;;;18.70;36.10;;;;;;5069443;28;20275;-85
2022/05/08 12:02:41;;;;;;;4.68;2.75;;;18.80;35.40;;;;;;5092877;28;20406;-85
2022/05/08 12:05:22;;;;;;;4.80;2.08;;;18.80;35.20;;;;;;5087024;28;20192;-85
2022/05/08 12:07:49;;;;;;;3.30;2.00;;;18.90;34.50;;;;;;5100611;28;20200;-85
2022/05/08 12:10:17;;;;;;;6.25;2.42;;;18.90;35.30;;;;;;5084756;28;20267;-85
2022/05/08 12:12:44;;;;;;;8.48;2.88;;;18.70;36.50;;;;;;5102275;28;20246;-85
2022/05/08 12:15:13;;;;;;;7.30;3.28;;;18.90;36.10;;;;;;5080061;28;20180;-87
2022/05/08 12:17:42;;;;;;;8.70;2.22;;;18.90;36.40;;;;;;5084658;28;20252;-87
2022/05/08 12:20:26;;;;;;;4.90;2.42;;;19.00;36.00;;;;;;5104018;28;20183;-87
2022/05/08 12:23:05;;;;;;;6.60;3.05;;;19.10;35.70;;;;;;5078260;28;20220;-86
2022/05/08 12:25:44;;;;;;;5.97;2.50;;;19.10;35.60;;;;;;5078283;28;20186;-87
2022/05/08 12:28:12;;;;;;;6.63;2.47;;;19.20;35.50;;;;;;5077583;28;20735;-85
2022/05/08 12:30:38;;;;;;;4.72;1.73;;;19.00;35.00;;;;;;5096038;28;20176;-85
2022/05/08 12:33:05;;;;;;;4.63;2.00;;;19.00;34.70;;;;;;5077390;28;20678;-86
2022/05/08 12:35:31;;;;;;;5.78;2.35;;;19.10;34.60;;;;;;5087775;28;20418;-85
2022/05/08 12:37:57;;;;;;;3.40;2.00;;;19.30;35.50;;;;;;5096072;28;20537;-86
2022/05/08 12:40:41;;;;;;;5.65;2.58;;;19.40;36.00;;;;;;5104277;28;20170;-86
2022/05/08 12:43:08;;;;;;;6.47;2.05;;;19.40;35.70;;;;;;5115168;28;20164;-85
2022/05/08 12:45:37;;;;;;;5.88;2.30;;;19.40;35.30;;;;;;5097561;28;20259;-85
2022/05/08 12:48:21;;;;;;;3.13;1.70;;;19.40;35.90;;;;;;5086376;28;20204;-84
2022/05/08 12:50:48;;;;;;;6.30;2.67;;;19.50;35.90;;;;;;5078331;28;20187;-85
2022/05/08 12:53:28;;;;;;;9.43;3.20;;;19.50;35.40;;;;;;5095249;28;20180;-85
2022/05/08 12:55:54;;;;;;;5.97;2.47;;;19.60;34.90;;;;;;5096779;28;20243;-85
2022/05/08 13:01:04;;;;;;;3.97;2.50;;;19.40;35.40;;;;;;5104085;28;20162;-86
2022/05/08 13:03:44;;;;;;;5.77;2.63;;;19.30;36.30;;;;;;5077768;28;20551;-86
2022/05/08 13:06:10;;;;;;;5.55;2.10;;;19.20;36.30;;;;;;5077029;28;20195;-85
2022/05/08 13:08:36;;;;;;;6.70;2.20;;;19.00;37.40;;;;;;5076506;28;20264;-85
2022/05/08 13:11:02;;;;;;;4.22;2.30;;;19.20;36.60;;;;;;5076325;28;20568;-85
2022/05/08 13:13:31;;;;;;;3.13;2.28;;;19.20;36.90;;;;;;5095361;28;20266;-85
2022/05/08 13:16:05;;;;;;;6.53;2.70;;;19.10;37.70;;;;;;5097390;28;20175;-85